TFM - Tactical Decision Aid (Experimental) INFO Settings

ID: Runway Winds: CIG/VIS Threshold: METAR Board: Map:

kiad - Washington-Dulles Intl

Updated at: 0120 UTC 25 Nov 2014
Latest TAF at: 2331 UTC 24 Nov 2014

TAF Board

Time0052Z25/02Z25/03Z25/04Z25/05Z25/06Z25/07Z25/08Z25/09Z25/10Z25/11Z25/12Z25/13Z25/14Z
TypeOBSPRVLPRVLPRVLPRVLPRVLPRVLPRVLPRVLPRVLPRVLPRVLPRVLPRVL
VIS10>6>6>6>6>6>6>6>6>6>6>6>6>6
CIG----------------------------
CoverFEWSCTSCTSCTSCTSCTSCTSCTSCTSCTSCTSCTSCTSCT
FltCat--VFRVFRVFRVFRVFRVFRVFRVFRVFRVFRVFRVFRVFR
WX----------------------------
WDir190240240240240240240240300300300300300300
WSpd66666666555555
WGst----------------------------
TAF
KIAD 242331Z 2500/2606 19007KT P6SM SKC
  FM250200 24006KT P6SM SCT250
  FM250900 30005KT P6SM SCT250
  FM260300 35004KT P6SM OVC090


METAR
KIAD 250052Z 19006KT 10SM FEW250 16/11 A2971 RMK AO2 SLP059 T01610111
KIAD 242352Z 19007KT 10SM CLR 17/11 A2968 RMK AO2 SLP051 T01670111 10211 20167 51017

TAF/METAR Board Legend

Potential Impact
  None Marginal Slight Moderate High
Visibility (sm) > ≤X≤ <
Ceiling (100 ft) > ≤X≤ <
Wind Speed (kt) <10 10≤X<20 20≤X<30 ≥30
Wind Gust (kt) <15 15≤X<25 25≤X<35 ≥35
Weather No Wx Reported VCTS -TS,-FZRA TS,FZRA +TS,+FZRA




Notice: Undefined index: kiad in /caws/site/new_awc/application/modules/trafficflowmgmt/controllers/TdaController.php on line 188

Notice: Undefined index: kiad in /caws/site/new_awc/application/modules/trafficflowmgmt/controllers/TdaController.php on line 189